Time;durP1;ratioP1;P1;durP2;ratioP2;P2;SDS_P1;SDS_P2;PMS_P1;PMS_P2;Temp;Humidity;BMP_temperature;BMP_pressure;BME280_temperature;BME280_humidity;BME280_pressure;Samples;Min_cycle;Max_cycle;Signal;HPM_P1;HPM_P2
2024/04/16 00:01:51;;;;;;;8.10;1.05;;;;;;;;;;5350295;26;20078;-79
2024/04/16 00:04:16;;;;;;;9.75;1.83;;;;;;;;;;5381126;26;19996;-79
2024/04/16 00:06:42;;;;;;;7.25;1.77;;;;;;;;;;5350857;26;20007;-80
2024/04/16 00:09:08;;;;;;;10.73;1.60;;;;;;;;;;5382286;26;19992;-79
2024/04/16 00:11:33;;;;;;;10.48;1.65;;;;;;;;;;5349591;26;20012;-79
2024/04/16 00:13:59;;;;;;;8.30;1.15;;;;;;;;;;5350683;26;19996;-79
2024/04/16 00:16:24;;;;;;;7.07;1.73;;;;;;;;;;5377783;26;20071;-79
2024/04/16 00:18:50;;;;;;;8.73;1.63;;;;;;;;;;5350969;26;20474;-80
2024/04/16 00:21:15;;;;;;;7.32;1.02;;;;;;;;;;5382911;26;20012;-79
2024/04/16 00:23:40;;;;;;;7.72;1.10;;;;;;;;;;5350307;26;20447;-79
2024/04/16 00:26:06;;;;;;;7.65;1.20;;;;;;;;;;5350892;26;20337;-79
2024/04/16 00:28:31;;;;;;;5.35;1.20;;;;;;;;;;5380670;26;20354;-79
2024/04/16 00:30:57;;;;;;;8.90;1.40;;;;;;;;;;5351206;26;20539;-79
2024/04/16 00:33:22;;;;;;;8.23;1.40;;;;;;;;;;5349875;26;20454;-79
2024/04/16 00:35:47;;;;;;;6.15;1.10;;;;;;;;;;5381232;26;19996;-79
2024/04/16 00:38:13;;;;;;;5.28;1.10;;;;;;;;;;5380462;26;20005;-79
2024/04/16 00:40:38;;;;;;;8.65;1.50;;;;;;;;;;5350347;26;20474;-79
2024/04/16 00:43:19;;;;;;;9.10;1.27;;;;;;;;;;5380532;26;20045;-79
2024/04/16 00:45:51;;;;;;;7.50;1.30;;;;;;;;;;5381728;26;20019;-79
2024/04/16 00:48:20;;;;;;;5.50;1.00;;;;;;;;;;5381338;26;20464;-79
2024/04/16 00:50:47;;;;;;;6.80;1.20;;;;;;;;;;5349769;26;20397;-80
2024/04/16 00:53:13;;;;;;;7.28;1.30;;;;;;;;;;5380267;26;20010;-79
2024/04/16 00:55:39;;;;;;;9.00;1.30;;;;;;;;;;5382506;26;19996;-79
2024/04/16 00:58:06;;;;;;;6.90;1.38;;;;;;;;;;5356227;26;20001;-79
2024/04/16 01:00:31;;;;;;;8.93;1.17;;;;;;;;;;5382061;26;20073;-79
2024/04/16 01:02:57;;;;;;;4.57;1.10;;;;;;;;;;5379126;26;20004;-79
2024/04/16 01:05:23;;;;;;;7.85;0.93;;;;;;;;;;5381437;26;20011;-79
2024/04/16 01:07:48;;;;;;;6.07;1.00;;;;;;;;;;5380407;26;20011;-79
2024/04/16 01:10:14;;;;;;;8.73;1.13;;;;;;;;;;5381486;26;20458;-78
2024/04/16 01:12:43;;;;;;;9.63;1.42;;;;;;;;;;5345833;26;20005;-79
2024/04/16 01:15:08;;;;;;;8.82;1.20;;;;;;;;;;5380242;26;20001;-79
2024/04/16 01:17:34;;;;;;;5.03;0.80;;;;;;;;;;5380484;26;20011;-79
2024/04/16 01:19:59;;;;;;;6.50;1.13;;;;;;;;;;5380370;26;20014;-79
2024/04/16 01:22:25;;;;;;;7.00;0.93;;;;;;;;;;5379931;26;20008;-79
2024/04/16 01:24:50;;;;;;;5.85;1.08;;;;;;;;;;5349852;26;20350;-79
2024/04/16 01:27:16;;;;;;;8.40;1.13;;;;;;;;;;5377624;26;20346;-79
2024/04/16 01:29:42;;;;;;;6.32;0.90;;;;;;;;;;5380755;26;20024;-80
2024/04/16 01:32:07;;;;;;;7.10;1.40;;;;;;;;;;5349575;26;20015;-79
2024/04/16 01:34:33;;;;;;;4.13;1.08;;;;;;;;;;5345473;26;20460;-79
2024/04/16 01:36:59;;;;;;;3.72;0.90;;;;;;;;;;5348055;26;20016;-79
2024/04/16 01:39:24;;;;;;;3.33;0.70;;;;;;;;;;5350074;26;20476;-79
2024/04/16 01:41:50;;;;;;;6.32;1.27;;;;;;;;;;5349239;26;20470;-79
2024/04/16 01:44:15;;;;;;;6.82;1.00;;;;;;;;;;5374057;26;20004;-80
2024/04/16 01:46:41;;;;;;;5.65;1.10;;;;;;;;;;5379749;26;20011;-79
2024/04/16 01:49:06;;;;;;;7.15;1.20;;;;;;;;;;5380668;26;20015;-79
2024/04/16 01:51:31;;;;;;;5.50;0.95;;;;;;;;;;5379908;26;20008;-80
2024/04/16 01:53:57;;;;;;;5.70;1.00;;;;;;;;;;5349128;26;20015;-79
2024/04/16 01:56:22;;;;;;;5.88;1.00;;;;;;;;;;5380455;26;20462;-79
2024/04/16 01:58:48;;;;;;;6.30;1.00;;;;;;;;;;5340160;26;20465;-79
2024/04/16 02:01:13;;;;;;;5.63;0.82;;;;;;;;;;5355357;26;20459;-79
2024/04/16 02:03:38;;;;;;;6.97;1.50;;;;;;;;;;5348402;26;20004;-79
2024/04/16 02:06:05;;;;;;;4.45;0.90;;;;;;;;;;5381405;26;20462;-79
2024/04/16 02:08:31;;;;;;;3.90;0.77;;;;;;;;;;5349073;26;20004;-79
2024/04/16 02:11:00;;;;;;;4.63;0.70;;;;;;;;;;5379725;26;20081;-79
2024/04/16 02:13:26;;;;;;;3.75;0.68;;;;;;;;;;5378096;26;20000;-79
2024/04/16 02:15:52;;;;;;;1.48;0.60;;;;;;;;;;5347903;26;20000;-79
2024/04/16 02:18:18;;;;;;;3.40;0.60;;;;;;;;;;5380840;26;20015;-79
2024/04/16 02:20:43;;;;;;;3.97;0.70;;;;;;;;;;5348174;26;20442;-79
2024/04/16 02:23:09;;;;;;;4.65;1.00;;;;;;;;;;5379187;26;20000;-79
2024/04/16 02:25:35;;;;;;;5.07;0.98;;;;;;;;;;5380261;26;20015;-79
2024/04/16 02:28:00;;;;;;;3.83;0.98;;;;;;;;;;5376670;26;20438;-79
2024/04/16 02:30:26;;;;;;;5.13;1.10;;;;;;;;;;5379463;26;19997;-80
2024/04/16 02:32:51;;;;;;;3.63;0.80;;;;;;;;;;5348511;26;20454;-80
2024/04/16 02:35:17;;;;;;;2.92;0.95;;;;;;;;;;5349557;26;20004;-79
2024/04/16 02:37:43;;;;;;;2.53;0.50;;;;;;;;;;5379103;26;20000;-80
2024/04/16 02:40:09;;;;;;;1.80;0.38;;;;;;;;;;5379393;26;20047;-80
2024/04/16 02:42:37;;;;;;;3.50;0.40;;;;;;;;;;5378373;26;20012;-80
2024/04/16 02:45:03;;;;;;;0.43;0.20;;;;;;;;;;5347209;26;19993;-79
2024/04/16 02:47:28;;;;;;;0.30;0.15;;;;;;;;;;5378760;26;20015;-80
2024/04/16 02:49:53;;;;;;;0.75;0.25;;;;;;;;;;5349241;26;20547;-80
2024/04/16 02:52:19;;;;;;;1.30;0.30;;;;;;;;;;5375901;26;19996;-80
2024/04/16 02:54:44;;;;;;;0.68;0.20;;;;;;;;;;5349747;26;19996;-80
2024/04/16 02:57:09;;;;;;;2.03;0.22;;;;;;;;;;5344898;26;20005;-80
2024/04/16 02:59:35;;;;;;;2.08;0.47;;;;;;;;;;5382789;26;20000;-80
2024/04/16 03:02:00;;;;;;;1.17;0.40;;;;;;;;;;5381502;26;20000;-80
2024/04/16 03:04:26;;;;;;;2.55;0.30;;;;;;;;;;5381916;26;20011;-78
2024/04/16 03:06:51;;;;;;;1.45;0.35;;;;;;;;;;5352151;26;19996;-78
2024/04/16 03:09:16;;;;;;;1.48;0.40;;;;;;;;;;5351508;26;20331;-79
2024/04/16 03:11:42;;;;;;;0.30;0.25;;;;;;;;;;5381834;26;20027;-79
2024/04/16 03:14:07;;;;;;;3.85;0.40;;;;;;;;;;5351170;26;20463;-79
2024/04/16 03:16:32;;;;;;;3.33;0.68;;;;;;;;;;5350299;26;20008;-78
2024/04/16 03:18:59;;;;;;;2.75;0.38;;;;;;;;;;5381911;26;20342;-78
2024/04/16 03:21:25;;;;;;;1.40;0.35;;;;;;;;;;5382251;26;20019;-79
2024/04/16 03:23:50;;;;;;;2.78;0.50;;;;;;;;;;5381669;26;20354;-79
2024/04/16 03:26:16;;;;;;;3.28;0.50;;;;;;;;;;5352127;26;20004;-78
2024/04/16 03:28:41;;;;;;;1.02;0.40;;;;;;;;;;5381247;26;20427;-78
2024/04/16 03:31:06;;;;;;;0.52;0.25;;;;;;;;;;5383045;26;20019;-78
2024/04/16 03:33:32;;;;;;;1.73;0.30;;;;;;;;;;5379448;26;20016;-79
2024/04/16 03:35:58;;;;;;;0.70;0.40;;;;;;;;;;5347222;26;20014;-79
2024/04/16 03:38:23;;;;;;;0.93;0.32;;;;;;;;;;5381930;26;19996;-78
2024/04/16 03:40:58;;;;;;;1.63;0.30;;;;;;;;;;5382571;26;20054;-78
2024/04/16 03:43:24;;;;;;;2.28;0.50;;;;;;;;;;5345190;26;20014;-79
2024/04/16 03:45:56;;;;;;;1.95;0.43;;;;;;;;;;5382778;26;20378;-78
2024/04/16 03:48:24;;;;;;;2.08;0.40;;;;;;;;;;5351075;26;20000;-79
2024/04/16 03:50:49;;;;;;;2.22;0.30;;;;;;;;;;5379431;26;20019;-78
2024/04/16 03:53:15;;;;;;;0.45;0.38;;;;;;;;;;5339928;26;20009;-78
2024/04/16 03:55:40;;;;;;;1.65;0.50;;;;;;;;;;5380624;26;20008;-79
2024/04/16 03:58:06;;;;;;;1.73;0.57;;;;;;;;;;5348121;26;20020;-78
2024/04/16 04:03:17;;;;;;;3.00;1.00;;;;;;;;;;5378654;26;20023;-77
2024/04/16 04:05:47;;;;;;;3.88;0.90;;;;;;;;;;5381098;26;20011;-79
2024/04/16 04:08:12;;;;;;;2.88;0.80;;;;;;;;;;5381406;26;20035;-78
2024/04/16 04:10:38;;;;;;;2.97;0.73;;;;;;;;;;5350357;26;20015;-79
2024/04/16 04:13:04;;;;;;;3.92;1.10;;;;;;;;;;5355173;26;20346;-78
2024/04/16 04:15:29;;;;;;;4.60;1.10;;;;;;;;;;5381134;26;19996;-79
2024/04/16 04:17:55;;;;;;;6.60;1.10;;;;;;;;;;5380768;26;20046;-78
2024/04/16 04:20:20;;;;;;;3.60;0.90;;;;;;;;;;5380131;26;20015;-78
2024/04/16 04:22:46;;;;;;;3.17;1.05;;;;;;;;;;5348190;26;20040;-78
2024/04/16 04:25:11;;;;;;;4.70;1.10;;;;;;;;;;5380189;26;20461;-78
2024/04/16 04:27:41;;;;;;;8.10;1.40;;;;;;;;;;5379747;26;20008;-79
2024/04/16 04:30:09;;;;;;;4.65;1.40;;;;;;;;;;5350687;26;20003;-79
2024/04/16 04:32:35;;;;;;;6.63;1.70;;;;;;;;;;5346372;26;19996;-79
2024/04/16 04:35:00;;;;;;;4.70;1.52;;;;;;;;;;5380435;26;20018;-80
2024/04/16 04:37:26;;;;;;;4.75;1.42;;;;;;;;;;5380117;26;20011;-79
2024/04/16 04:39:52;;;;;;;3.90;1.02;;;;;;;;;;5350078;26;20009;-80
2024/04/16 04:42:17;;;;;;;4.75;1.17;;;;;;;;;;5379202;26;20000;-80
2024/04/16 04:44:42;;;;;;;6.78;1.30;;;;;;;;;;5349423;26;20138;-80
2024/04/16 04:47:08;;;;;;;4.75;1.02;;;;;;;;;;5349432;26;19996;-80
2024/04/16 04:49:34;;;;;;;4.40;1.60;;;;;;;;;;5349832;26;20481;-79
2024/04/16 04:51:59;;;;;;;3.97;0.85;;;;;;;;;;5381223;26;20068;-80
2024/04/16 04:54:24;;;;;;;3.80;1.13;;;;;;;;;;5374595;26;20001;-79
2024/04/16 04:56:50;;;;;;;2.45;0.60;;;;;;;;;;5378190;26;19996;-79
2024/04/16 04:59:16;;;;;;;2.58;0.60;;;;;;;;;;5381213;26;20011;-79
2024/04/16 05:01:41;;;;;;;2.42;0.60;;;;;;;;;;5345746;26;19995;-79
2024/04/16 05:04:07;;;;;;;4.65;1.27;;;;;;;;;;5379128;26;20023;-79
2024/04/16 05:06:33;;;;;;;1.73;0.80;;;;;;;;;;5381182;26;20511;-79
2024/04/16 05:08:59;;;;;;;3.95;0.90;;;;;;;;;;5349770;26;20004;-79
2024/04/16 05:11:25;;;;;;;2.15;0.77;;;;;;;;;;5377214;26;20462;-79
2024/04/16 05:13:51;;;;;;;2.20;0.77;;;;;;;;;;5378942;26;19997;-80
2024/04/16 05:16:16;;;;;;;2.95;0.82;;;;;;;;;;5379596;26;20004;-80
2024/04/16 05:18:41;;;;;;;2.05;0.60;;;;;;;;;;5379828;26;20417;-79
2024/04/16 05:21:07;;;;;;;3.55;0.80;;;;;;;;;;5378914;26;20535;-80
2024/04/16 05:23:32;;;;;;;2.03;0.70;;;;;;;;;;5380757;26;20011;-79
2024/04/16 05:26:02;;;;;;;2.88;0.85;;;;;;;;;;5344793;26;20001;-79
2024/04/16 05:28:28;;;;;;;2.25;0.60;;;;;;;;;;5346908;26;20012;-80
2024/04/16 05:30:54;;;;;;;3.13;0.60;;;;;;;;;;5348985;26;20081;-79
2024/04/16 05:33:19;;;;;;;2.83;0.57;;;;;;;;;;5380306;26;20012;-80
2024/04/16 05:35:45;;;;;;;3.15;0.70;;;;;;;;;;5380632;26;20019;-80
2024/04/16 05:38:10;;;;;;;3.75;0.50;;;;;;;;;;5358734;26;20334;-79
2024/04/16 05:40:35;;;;;;;2.03;0.60;;;;;;;;;;5348679;26;20459;-79
2024/04/16 05:43:01;;;;;;;1.35;0.52;;;;;;;;;;5347241;26;19996;-80
2024/04/16 05:45:26;;;;;;;3.17;0.60;;;;;;;;;;5379331;26;20077;-79
2024/04/16 05:47:51;;;;;;;3.75;0.80;;;;;;;;;;5379743;26;20365;-79
2024/04/16 05:50:17;;;;;;;2.92;0.82;;;;;;;;;;5379808;26;20028;-79
2024/04/16 05:52:42;;;;;;;2.88;0.70;;;;;;;;;;5379840;26;19997;-79
2024/04/16 05:55:08;;;;;;;2.42;0.77;;;;;;;;;;5379074;26;20007;-79
2024/04/16 05:57:33;;;;;;;3.03;0.88;;;;;;;;;;5340920;26;20007;-79
2024/04/16 05:59:59;;;;;;;3.42;1.13;;;;;;;;;;5380224;26;20000;-80
2024/04/16 06:02:25;;;;;;;4.03;0.93;;;;;;;;;;5349054;26;20016;-79
2024/04/16 06:04:50;;;;;;;3.42;1.10;;;;;;;;;;5349529;26;20012;-79
2024/04/16 06:07:16;;;;;;;2.88;1.38;;;;;;;;;;5350007;26;20005;-79
2024/04/16 06:09:41;;;;;;;6.55;1.40;;;;;;;;;;5380108;26;20027;-79
2024/04/16 06:12:07;;;;;;;10.27;1.40;;;;;;;;;;5358748;26;20346;-79
2024/04/16 06:14:32;;;;;;;5.95;1.58;;;;;;;;;;5349334;26;20486;-80
2024/04/16 06:16:58;;;;;;;7.78;1.42;;;;;;;;;;5372929;26;20015;-80
2024/04/16 06:19:23;;;;;;;9.15;1.60;;;;;;;;;;5380747;26;20004;-79
2024/04/16 06:21:49;;;;;;;10.93;1.58;;;;;;;;;;5347029;26;20023;-79
2024/04/16 06:24:14;;;;;;;13.88;2.03;;;;;;;;;;5349627;26;20004;-79
2024/04/16 06:26:40;;;;;;;6.95;1.60;;;;;;;;;;5379822;26;20344;-79
2024/04/16 06:29:05;;;;;;;11.38;1.98;;;;;;;;;;5349678;26;20004;-79
2024/04/16 06:31:31;;;;;;;8.98;2.10;;;;;;;;;;5380271;26;20010;-80
2024/04/16 06:33:56;;;;;;;8.32;1.73;;;;;;;;;;5354811;26;20342;-79
2024/04/16 06:36:22;;;;;;;6.72;1.77;;;;;;;;;;5387498;26;20015;-80
2024/04/16 06:38:47;;;;;;;8.45;1.60;;;;;;;;;;5386954;26;20000;-80
2024/04/16 06:41:12;;;;;;;9.52;1.95;;;;;;;;;;5386823;26;20012;-80
2024/04/16 06:43:38;;;;;;;8.95;1.92;;;;;;;;;;5387348;26;20055;-80
2024/04/16 06:46:04;;;;;;;6.10;1.90;;;;;;;;;;5362187;26;20458;-79
2024/04/16 06:48:30;;;;;;;8.25;1.65;;;;;;;;;;5353597;26;20019;-79
2024/04/16 06:50:56;;;;;;;12.20;1.80;;;;;;;;;;5356853;26;20012;-79
2024/04/16 06:53:22;;;;;;;8.27;1.60;;;;;;;;;;5378592;26;20078;-79
2024/04/16 06:56:04;;;;;;;8.65;1.45;;;;;;;;;;5353854;26;20073;-79
2024/04/16 06:58:30;;;;;;;10.13;1.80;;;;;;;;;;5344236;26;20007;-80
2024/04/16 07:00:56;;;;;;;7.53;1.60;;;;;;;;;;5386383;26;20466;-79
2024/04/16 07:03:23;;;;;;;6.35;1.15;;;;;;;;;;5386646;26;20008;-79
2024/04/16 07:05:48;;;;;;;6.95;1.13;;;;;;;;;;5386277;26;20012;-79
2024/04/16 07:08:14;;;;;;;3.72;1.15;;;;;;;;;;5384449;26;20000;-79
2024/04/16 07:10:39;;;;;;;8.95;1.65;;;;;;;;;;5355891;26;20004;-79
2024/04/16 07:13:05;;;;;;;5.45;1.17;;;;;;;;;;5384395;26;20074;-80
2024/04/16 07:15:33;;;;;;;4.40;1.25;;;;;;;;;;5388493;26;20007;-79
2024/04/16 07:17:58;;;;;;;7.82;1.35;;;;;;;;;;5387969;26;20007;-79
2024/04/16 07:20:23;;;;;;;5.65;1.25;;;;;;;;;;5386329;26;20000;-79
2024/04/16 07:22:51;;;;;;;4.82;1.20;;;;;;;;;;5356741;26;20342;-79
2024/04/16 07:25:17;;;;;;;7.25;1.23;;;;;;;;;;5387924;26;20011;-79
2024/04/16 07:27:44;;;;;;;8.20;1.65;;;;;;;;;;5386379;26;20007;-80
2024/04/16 07:30:09;;;;;;;8.88;1.65;;;;;;;;;;5354759;26;20454;-79
2024/04/16 07:32:35;;;;;;;5.47;1.20;;;;;;;;;;5385463;26;20007;-80
2024/04/16 07:35:00;;;;;;;10.48;1.50;;;;;;;;;;5383246;26;20069;-79
2024/04/16 07:37:26;;;;;;;8.20;1.67;;;;;;;;;;5356870;26;20000;-79
2024/04/16 07:39:51;;;;;;;9.45;1.67;;;;;;;;;;5371574;26;20001;-79
2024/04/16 07:42:16;;;;;;;10.48;1.45;;;;;;;;;;5350370;26;20001;-80
2024/04/16 07:44:42;;;;;;;7.22;1.80;;;;;;;;;;5380383;26;20856;-80
2024/04/16 07:47:07;;;;;;;9.30;1.67;;;;;;;;;;5365020;26;20015;-82
2024/04/16 07:49:33;;;;;;;7.57;1.40;;;;;;;;;;5340735;26;20036;-80
2024/04/16 07:51:58;;;;;;;5.32;1.30;;;;;;;;;;5349680;26;20001;-80
2024/04/16 07:54:23;;;;;;;5.20;1.25;;;;;;;;;;5383562;26;20388;-80
2024/04/16 07:56:50;;;;;;;7.35;1.73;;;;;;;;;;5381459;26;20010;-80
2024/04/16 07:59:16;;;;;;;5.88;1.35;;;;;;;;;;5351390;26;20011;-80
2024/04/16 08:01:41;;;;;;;7.15;1.42;;;;;;;;;;5381775;26;20004;-80
2024/04/16 08:04:06;;;;;;;6.85;1.48;;;;;;;;;;5350647;26;20357;-80
2024/04/16 08:06:32;;;;;;;7.50;1.40;;;;;;;;;;5381703;26;20019;-80
2024/04/16 08:08:57;;;;;;;8.85;1.50;;;;;;;;;;5381080;26;20012;-80
2024/04/16 08:11:23;;;;;;;9.85;1.90;;;;;;;;;;5375209;26;20005;-80
2024/04/16 08:13:50;;;;;;;11.45;1.63;;;;;;;;;;5345689;26;20008;-80
2024/04/16 08:16:15;;;;;;;10.10;1.55;;;;;;;;;;5381954;26;19998;-79
2024/04/16 08:18:41;;;;;;;7.45;1.63;;;;;;;;;;5383026;26;20014;-80
2024/04/16 08:21:06;;;;;;;10.10;1.60;;;;;;;;;;5362835;26;20338;-79
2024/04/16 08:23:32;;;;;;;8.25;1.80;;;;;;;;;;5382068;26;20015;-80
2024/04/16 08:26:02;;;;;;;9.93;1.80;;;;;;;;;;5350335;26;20000;-80
2024/04/16 08:28:28;;;;;;;9.82;2.22;;;;;;;;;;5382733;26;20028;-80
2024/04/16 08:31:02;;;;;;;6.63;1.67;;;;;;;;;;5381034;26;20007;-79
2024/04/16 08:33:27;;;;;;;7.40;1.85;;;;;;;;;;5382652;26;20000;-80
2024/04/16 08:35:53;;;;;;;4.93;1.70;;;;;;;;;;5378863;26;20525;-80
2024/04/16 08:38:19;;;;;;;6.00;1.50;;;;;;;;;;5382888;26;20001;-80
2024/04/16 08:40:45;;;;;;;7.30;1.70;;;;;;;;;;5380521;26;20012;-80
2024/04/16 08:43:11;;;;;;;6.25;1.60;;;;;;;;;;5347176;26;20075;-80
2024/04/16 08:45:37;;;;;;;7.65;2.03;;;;;;;;;;5347532;26;20029;-80
2024/04/16 08:48:04;;;;;;;9.60;1.65;;;;;;;;;;5351411;26;20461;-80
2024/04/16 08:50:30;;;;;;;10.25;1.85;;;;;;;;;;5379507;26;20014;-80
2024/04/16 08:52:58;;;;;;;6.95;1.73;;;;;;;;;;5373308;26;20008;-80
2024/04/16 08:55:25;;;;;;;4.35;1.38;;;;;;;;;;5349888;26;20023;-80
2024/04/16 08:57:51;;;;;;;8.05;1.90;;;;;;;;;;5380277;26;20000;-80
2024/04/16 09:00:18;;;;;;;10.63;1.65;;;;;;;;;;5379916;26;20011;-80
2024/04/16 09:02:44;;;;;;;5.45;1.60;;;;;;;;;;5350722;26;20003;-79
2024/04/16 09:05:09;;;;;;;4.55;1.00;;;;;;;;;;5382016;26;19997;-81
2024/04/16 09:07:37;;;;;;;2.45;0.88;;;;;;;;;;5381552;26;20038;-80
2024/04/16 09:10:13;;;;;;;2.60;0.68;;;;;;;;;;5380642;26;20016;-80
2024/04/16 09:12:46;;;;;;;4.70;0.80;;;;;;;;;;5379613;26;20074;-80
2024/04/16 09:15:16;;;;;;;4.28;0.85;;;;;;;;;;5348689;26;20000;-80
2024/04/16 09:17:55;;;;;;;4.85;0.98;;;;;;;;;;5350463;26;20012;-80
2024/04/16 09:20:22;;;;;;;3.30;0.80;;;;;;;;;;5378292;26;20462;-79
2024/04/16 09:22:50;;;;;;;5.30;1.17;;;;;;;;;;5350588;26;20008;-80
2024/04/16 09:25:19;;;;;;;5.30;1.20;;;;;;;;;;5380220;26;20474;-80
2024/04/16 09:27:49;;;;;;;4.35;1.00;;;;;;;;;;5345247;26;20012;-80
2024/04/16 09:30:15;;;;;;;2.85;0.80;;;;;;;;;;5347703;26;20097;-79
2024/04/16 09:32:42;;;;;;;4.85;1.08;;;;;;;;;;5379600;26;20462;-80
2024/04/16 09:35:08;;;;;;;6.30;1.10;;;;;;;;;;5378533;26;20074;-80
2024/04/16 09:37:33;;;;;;;2.55;0.90;;;;;;;;;;5350028;26;20004;-80
2024/04/16 09:39:59;;;;;;;6.10;1.25;;;;;;;;;;5350394;26;20038;-80
2024/04/16 09:42:30;;;;;;;4.60;1.10;;;;;;;;;;5349151;26;20044;-81
2024/04/16 09:45:00;;;;;;;6.07;1.40;;;;;;;;;;5381103;26;20028;-80
2024/04/16 09:47:26;;;;;;;8.77;1.30;;;;;;;;;;5348160;26;20460;-80
2024/04/16 09:49:55;;;;;;;8.68;1.30;;;;;;;;;;5353963;26;20138;-80
2024/04/16 09:52:21;;;;;;;6.07;1.50;;;;;;;;;;5348782;26;19996;-80
2024/04/16 09:54:48;;;;;;;5.47;1.30;;;;;;;;;;5349988;26;20008;-80
2024/04/16 09:57:18;;;;;;;6.18;1.40;;;;;;;;;;5377386;26;20012;-80
2024/04/16 09:59:47;;;;;;;5.82;1.27;;;;;;;;;;5341130;26;20000;-80
2024/04/16 10:02:13;;;;;;;7.57;1.40;;;;;;;;;;5381489;26;20404;-80
2024/04/16 10:04:40;;;;;;;5.80;1.70;;;;;;;;;;5347068;26;20069;-81
2024/04/16 10:07:05;;;;;;;6.63;1.83;;;;;;;;;;5365538;26;20471;-81
2024/04/16 10:09:32;;;;;;;7.00;2.13;;;;;;;;;;5374530;26;20005;-81
2024/04/16 10:11:58;;;;;;;5.57;1.20;;;;;;;;;;5377932;26;20029;-81
2024/04/16 10:14:24;;;;;;;4.97;1.42;;;;;;;;;;5381753;26;20032;-81
2024/04/16 10:16:50;;;;;;;8.82;1.67;;;;;;;;;;5373564;26;20414;-81
2024/04/16 10:19:17;;;;;;;5.45;1.48;;;;;;;;;;5332789;26;20005;-81
2024/04/16 10:21:46;;;;;;;6.65;1.55;;;;;;;;;;5376614;26;20008;-81
2024/04/16 10:24:16;;;;;;;6.57;1.80;;;;;;;;;;5379655;26;20003;-81
2024/04/16 10:26:43;;;;;;;6.88;1.40;;;;;;;;;;5345887;26;20019;-81
2024/04/16 10:29:23;;;;;;;4.68;1.40;;;;;;;;;;5374383;26;20007;-82
2024/04/16 10:31:54;;;;;;;6.85;1.50;;;;;;;;;;5363065;26;20011;-81
2024/04/16 10:34:21;;;;;;;10.10;1.65;;;;;;;;;;5373145;26;20004;-82
2024/04/16 10:36:47;;;;;;;4.53;1.60;;;;;;;;;;5380381;26;20074;-82
2024/04/16 10:39:13;;;;;;;8.13;1.30;;;;;;;;;;5348023;26;20004;-81
2024/04/16 10:41:50;;;;;;;9.05;1.30;;;;;;;;;;5348334;26;20035;-81
2024/04/16 10:44:17;;;;;;;9.07;1.45;;;;;;;;;;5370959;26;20004;-82
2024/04/16 10:46:43;;;;;;;5.95;1.20;;;;;;;;;;5347739;26;20015;-80
2024/04/16 10:49:11;;;;;;;5.45;1.10;;;;;;;;;;5379214;26;20466;-80
2024/04/16 10:51:37;;;;;;;3.72;1.00;;;;;;;;;;5349506;26;20012;-80
2024/04/16 10:54:08;;;;;;;5.95;1.00;;;;;;;;;;5348996;26;20048;-81
2024/04/16 10:56:38;;;;;;;8.40;1.02;;;;;;;;;;5338750;26;20031;-81
2024/04/16 10:59:07;;;;;;;4.15;0.90;;;;;;;;;;5348676;26;20004;-80
2024/04/16 11:01:42;;;;;;;2.78;0.88;;;;;;;;;;5349365;26;20459;-81
2024/04/16 11:04:12;;;;;;;3.13;1.00;;;;;;;;;;5347692;26;20007;-81
2024/04/16 11:06:39;;;;;;;6.05;1.00;;;;;;;;;;5346601;26;19996;-81
2024/04/16 11:09:05;;;;;;;3.15;0.80;;;;;;;;;;5374329;26;20012;-80
2024/04/16 11:11:32;;;;;;;5.45;1.05;;;;;;;;;;5341223;26;20046;-80
2024/04/16 11:13:58;;;;;;;5.00;0.93;;;;;;;;;;5344582;26;20000;-80
2024/04/16 11:16:25;;;;;;;5.95;1.10;;;;;;;;;;5342734;26;20008;-80
2024/04/16 11:18:51;;;;;;;6.32;1.23;;;;;;;;;;5349248;26;20007;-80
2024/04/16 11:21:17;;;;;;;5.30;1.00;;;;;;;;;;5351602;26;20008;-81
2024/04/16 11:23:42;;;;;;;3.85;0.90;;;;;;;;;;5382090;26;20459;-80
2024/04/16 11:26:08;;;;;;;3.05;0.90;;;;;;;;;;5351169;26;20008;-80
2024/04/16 11:28:33;;;;;;;6.25;1.30;;;;;;;;;;5382319;26;20376;-81
2024/04/16 11:30:59;;;;;;;2.53;0.90;;;;;;;;;;5380382;26;19996;-80
2024/04/16 11:33:25;;;;;;;5.07;1.52;;;;;;;;;;5382092;26;20372;-81
2024/04/16 11:35:51;;;;;;;2.70;0.70;;;;;;;;;;5382543;26;19996;-81
2024/04/16 11:38:22;;;;;;;6.40;0.80;;;;;;;;;;5381599;26;20000;-81
2024/04/16 11:40:47;;;;;;;5.63;0.90;;;;;;;;;;5350117;26;20006;-81
2024/04/16 11:43:13;;;;;;;4.75;0.90;;;;;;;;;;5381977;26;20016;-81
2024/04/16 11:45:40;;;;;;;3.75;0.77;;;;;;;;;;5380039;26;20004;-80
2024/04/16 11:48:06;;;;;;;3.78;0.82;;;;;;;;;;5369437;26;20029;-81
2024/04/16 11:50:31;;;;;;;3.45;0.98;;;;;;;;;;5348585;26;20011;-80
2024/04/16 11:52:56;;;;;;;4.45;1.50;;;;;;;;;;5387430;26;20085;-80
2024/04/16 11:55:22;;;;;;;5.05;0.90;;;;;;;;;;5382688;26;20008;-81
2024/04/16 11:57:47;;;;;;;6.68;1.13;;;;;;;;;;5351078;26;20358;-80
2024/04/16 12:00:12;;;;;;;5.95;1.25;;;;;;;;;;5349365;26;20512;-80
2024/04/16 12:02:38;;;;;;;5.03;1.08;;;;;;;;;;5381801;26;20073;-81
2024/04/16 12:05:03;;;;;;;3.63;0.88;;;;;;;;;;5347197;26;20359;-81
2024/04/16 12:07:29;;;;;;;3.97;0.70;;;;;;;;;;5383329;26;20353;-81
2024/04/16 12:09:54;;;;;;;1.90;0.80;;;;;;;;;;5382003;26;19996;-81
2024/04/16 12:12:20;;;;;;;2.88;0.90;;;;;;;;;;5381901;26;20358;-81
2024/04/16 12:14:45;;;;;;;2.75;0.70;;;;;;;;;;5349535;26;19996;-81
2024/04/16 12:17:10;;;;;;;4.95;0.98;;;;;;;;;;5377074;26;20019;-81
2024/04/16 12:19:38;;;;;;;3.72;0.90;;;;;;;;;;5351140;26;20485;-81
2024/04/16 12:22:03;;;;;;;7.75;1.08;;;;;;;;;;5350275;26;20005;-81
2024/04/16 12:24:29;;;;;;;5.53;1.33;;;;;;;;;;5350940;26;20353;-81
2024/04/16 12:26:54;;;;;;;4.28;0.80;;;;;;;;;;5349541;26;20004;-82
2024/04/16 12:29:19;;;;;;;4.53;0.95;;;;;;;;;;5381718;26;20019;-81
2024/04/16 12:31:45;;;;;;;4.45;0.88;;;;;;;;;;5381342;26;20000;-81
2024/04/16 12:34:11;;;;;;;3.75;0.93;;;;;;;;;;5381431;26;20004;-81
2024/04/16 12:36:36;;;;;;;3.83;1.00;;;;;;;;;;5348916;26;20342;-81
2024/04/16 12:39:02;;;;;;;2.90;1.17;;;;;;;;;;5347603;26;20673;-81
2024/04/16 12:41:27;;;;;;;3.30;1.00;;;;;;;;;;5349662;26;20004;-81
2024/04/16 12:43:52;;;;;;;4.30;1.10;;;;;;;;;;5380197;26;20011;-81
2024/04/16 12:46:18;;;;;;;3.92;0.98;;;;;;;;;;5381744;26;20004;-81
2024/04/16 12:48:43;;;;;;;5.05;1.08;;;;;;;;;;5380663;26;20028;-81
2024/04/16 12:51:09;;;;;;;4.45;1.02;;;;;;;;;;5352893;26;20004;-81
2024/04/16 12:53:34;;;;;;;2.65;0.85;;;;;;;;;;5348285;26;20008;-80
2024/04/16 12:56:00;;;;;;;4.18;0.90;;;;;;;;;;5341503;26;20000;-81
2024/04/16 12:58:25;;;;;;;4.25;0.95;;;;;;;;;;5348655;26;20354;-81
2024/04/16 13:00:50;;;;;;;2.05;0.80;;;;;;;;;;5351435;26;20037;-81
2024/04/16 13:03:16;;;;;;;3.20;0.73;;;;;;;;;;5382320;26;20000;-82
2024/04/16 13:05:41;;;;;;;2.88;0.80;;;;;;;;;;5347573;26;20380;-81
2024/04/16 13:08:08;;;;;;;2.72;0.90;;;;;;;;;;5380006;26;20023;-81
2024/04/16 13:10:36;;;;;;;5.32;0.85;;;;;;;;;;5379915;26;20458;-81
2024/04/16 13:13:02;;;;;;;2.20;0.80;;;;;;;;;;5348922;26;20028;-81
2024/04/16 13:15:27;;;;;;;5.38;1.10;;;;;;;;;;5350749;26;20007;-82
2024/04/16 13:17:53;;;;;;;5.80;1.27;;;;;;;;;;5350574;26;19997;-82
2024/04/16 13:20:19;;;;;;;3.13;1.10;;;;;;;;;;5349345;26;20466;-82
2024/04/16 13:22:46;;;;;;;5.68;1.48;;;;;;;;;;5381883;26;20413;-82
2024/04/16 13:25:12;;;;;;;6.35;1.60;;;;;;;;;;5348820;26;20000;-81
2024/04/16 13:27:37;;;;;;;4.55;1.60;;;;;;;;;;5350541;26;20327;-82
2024/04/16 13:30:03;;;;;;;5.65;1.73;;;;;;;;;;5346721;26;20012;-82
2024/04/16 13:32:28;;;;;;;6.70;2.50;;;;;;;;;;5350033;26;19996;-83
2024/04/16 13:34:54;;;;;;;5.05;2.05;;;;;;;;;;5380956;26;20000;-82
2024/04/16 13:37:19;;;;;;;7.93;2.15;;;;;;;;;;5381712;26;20078;-81
2024/04/16 13:39:45;;;;;;;6.13;2.22;;;;;;;;;;5380632;26;20400;-89
2024/04/16 13:42:10;;;;;;;5.18;2.05;;;;;;;;;;5348748;26;20000;-82
2024/04/16 13:44:36;;;;;;;4.53;2.13;;;;;;;;;;5349304;26;20458;-81
2024/04/16 13:47:02;;;;;;;5.00;2.05;;;;;;;;;;5350084;26;20392;-81
2024/04/16 13:49:27;;;;;;;7.28;1.92;;;;;;;;;;5381218;26;20478;-82
2024/04/16 13:51:53;;;;;;;3.92;1.95;;;;;;;;;;5348288;26;20004;-81
2024/04/16 13:54:18;;;;;;;7.47;1.73;;;;;;;;;;5349729;26;20015;-82
2024/04/16 13:56:44;;;;;;;4.88;1.60;;;;;;;;;;5377882;26;20028;-81
2024/04/16 13:59:09;;;;;;;4.80;1.73;;;;;;;;;;5382376;26;20004;-82
2024/04/16 14:01:34;;;;;;;4.55;1.20;;;;;;;;;;5349604;26;20540;-89
2024/04/16 14:04:00;;;;;;;3.42;1.40;;;;;;;;;;5349825;26;20000;-82
2024/04/16 14:06:25;;;;;;;3.05;1.50;;;;;;;;;;5346426;26;20528;-81
2024/04/16 14:08:51;;;;;;;5.95;1.45;;;;;;;;;;5350292;26;20032;-82
2024/04/16 14:11:16;;;;;;;4.40;1.50;;;;;;;;;;5346397;26;20032;-81
2024/04/16 14:13:41;;;;;;;4.38;1.35;;;;;;;;;;5346305;26;20077;-82
2024/04/16 14:16:07;;;;;;;5.65;1.60;;;;;;;;;;5349762;26;20007;-81
2024/04/16 14:18:32;;;;;;;4.47;1.40;;;;;;;;;;5350156;26;20358;-81
2024/04/16 14:20:58;;;;;;;2.50;1.15;;;;;;;;;;5377661;26;20359;-82
2024/04/16 14:23:24;;;;;;;4.95;1.40;;;;;;;;;;5348105;26;20014;-81
2024/04/16 14:25:50;;;;;;;2.92;1.30;;;;;;;;;;5379755;26;20000;-81
2024/04/16 14:28:15;;;;;;;4.32;1.70;;;;;;;;;;5378853;26;20055;-80
2024/04/16 14:30:40;;;;;;;3.40;1.52;;;;;;;;;;5379951;26;20012;-81
2024/04/16 14:33:08;;;;;;;3.80;1.90;;;;;;;;;;5377895;26;20371;-82
2024/04/16 14:35:33;;;;;;;6.45;1.80;;;;;;;;;;5348902;26;20000;-81
2024/04/16 14:37:58;;;;;;;5.40;2.20;;;;;;;;;;5380185;26;20008;-81
2024/04/16 14:40:24;;;;;;;4.45;1.85;;;;;;;;;;5348356;26;20000;-81